Williamsburg, Michigan
Current Conditions -  °F | °C
As of 7:53 PM on Saturday 25 Oct 2014 (Local Time) from KTVC Reporting Station
Clear Clear  
Wind Chill: 52°   Ceiling: Unl
Heat Index: 52°   Visibility: 10mi
Dew Point: 35°   Wind: 8mph
Humidity: 53%   Direction: 280°W
Pressure: 29.77"   Gusts: NA
Location:  44.77°N, 85.4°W
Report Text: KTVC 252353Z 28007KT 10SM CLR 11/02 A2977 RMK AO2 SLP081 T01110017 10172 20111 53011
Loading
Personal Weather Stations






























Interactive Weather Map
Tropical Storm Tracking
New forecast layout! Learn more

10-Day Weather Forecast

Advertisements
Track Severe Weather on mobile